createdAt,value
2023-05-25T00:00:19.252Z,4.36
2023-05-25T00:01:19.220Z,4.40
2023-05-25T00:02:19.282Z,4.37
2023-05-25T00:03:19.282Z,4.36
2023-05-25T00:04:19.250Z,4.33
2023-05-25T00:05:19.157Z,4.45
2023-05-25T00:06:19.569Z,4.36
2023-05-25T00:07:19.157Z,4.34
2023-05-25T00:08:19.122Z,4.41
2023-05-25T00:09:19.131Z,4.42
2023-05-25T00:10:20.143Z,4.33
2023-05-25T00:11:19.098Z,4.40
2023-05-25T00:12:19.095Z,4.33
2023-05-25T00:13:19.072Z,4.33
2023-05-25T00:14:19.059Z,4.34
2023-05-25T00:15:19.087Z,4.27
2023-05-25T00:16:19.116Z,4.26
2023-05-25T00:17:19.133Z,4.22
2023-05-25T00:18:19.116Z,4.20
2023-05-25T00:19:19.012Z,4.18
2023-05-25T00:20:19.032Z,4.16
2023-05-25T00:21:19.017Z,4.23
2023-05-25T00:22:18.967Z,4.20
2023-05-25T00:23:18.978Z,4.18
2023-05-25T00:24:18.961Z,4.30
2023-05-25T00:25:18.933Z,4.30
2023-05-25T00:26:18.944Z,4.26
2023-05-25T00:27:18.947Z,4.30
2023-05-25T00:28:18.922Z,4.27
2023-05-25T00:29:18.918Z,4.11
2023-05-25T00:30:18.875Z,4.23
2023-05-25T00:31:18.964Z,4.16
2023-05-25T00:32:18.859Z,4.18
2023-05-25T00:33:18.898Z,4.11
2023-05-25T00:34:18.833Z,4.11
2023-05-25T00:35:18.838Z,4.12
2023-05-25T00:36:18.809Z,4.14
2023-05-25T00:37:18.826Z,4.14
2023-05-25T00:38:18.788Z,4.09
2023-05-25T00:39:18.816Z,4.06
2023-05-25T00:40:18.769Z,4.06
2023-05-25T00:41:18.763Z,4.08
2023-05-25T00:42:18.763Z,4.04
2023-05-25T00:43:18.790Z,4.02
2023-05-25T00:44:18.723Z,4.05
2023-05-25T00:45:18.733Z,4.00
2023-05-25T00:46:18.735Z,4.04
2023-05-25T00:47:18.702Z,3.98
2023-05-25T00:48:18.693Z,4.05
2023-05-25T00:49:18.733Z,4.05
2023-05-25T00:50:18.663Z,4.02
2023-05-25T00:51:18.650Z,3.96
2023-05-25T00:52:18.632Z,3.97
2023-05-25T00:53:18.634Z,3.98
2023-05-25T00:54:18.629Z,3.97
2023-05-25T00:55:18.605Z,4.02
2023-05-25T00:56:18.621Z,4.00
2023-05-25T00:57:18.585Z,3.91
2023-05-25T00:58:18.573Z,3.93
2023-05-25T00:59:18.584Z,3.96
2023-05-25T01:00:18.579Z,3.90
2023-05-25T01:01:18.552Z,3.94
2023-05-25T01:02:18.559Z,3.91
2023-05-25T01:03:18.581Z,3.96
2023-05-25T01:04:18.495Z,3.96
2023-05-25T01:05:18.520Z,3.97
2023-05-25T01:06:18.475Z,3.97
2023-05-25T01:07:18.495Z,3.88
2023-05-25T01:08:18.468Z,3.80
2023-05-25T01:09:18.454Z,3.87
2023-05-25T01:10:18.433Z,3.79
2023-05-25T01:11:18.757Z,3.78
2023-05-25T01:12:18.436Z,3.86
2023-05-25T01:13:18.416Z,3.84
2023-05-25T01:14:18.388Z,3.87
2023-05-25T01:15:18.381Z,3.79
2023-05-25T01:16:18.400Z,3.80
2023-05-25T01:17:18.369Z,3.76
2023-05-25T01:18:18.354Z,3.80
2023-05-25T01:19:18.339Z,3.80
2023-05-25T01:20:18.381Z,3.76
2023-05-25T01:21:18.355Z,3.76
2023-05-25T01:22:18.306Z,3.80
2023-05-25T01:23:18.312Z,3.73
2023-05-25T01:24:18.277Z,3.79
2023-05-25T01:25:18.280Z,3.75
2023-05-25T01:26:18.275Z,3.75
2023-05-25T01:27:18.245Z,3.78
2023-05-25T01:28:18.259Z,3.83
2023-05-25T01:29:18.294Z,3.76
2023-05-25T01:30:18.218Z,3.76
2023-05-25T01:31:18.217Z,3.76
2023-05-25T01:32:18.360Z,3.69
2023-05-25T01:33:18.225Z,3.68
2023-05-25T01:34:18.186Z,3.79
2023-05-25T01:35:18.180Z,3.70
2023-05-25T01:36:18.142Z,3.60
2023-05-25T01:37:18.173Z,3.55
2023-05-25T01:38:18.127Z,3.54
2023-05-25T01:39:18.116Z,3.68
2023-05-25T01:40:18.113Z,3.61
2023-05-25T01:41:18.092Z,3.73
2023-05-25T01:42:18.088Z,3.54
2023-05-25T01:43:18.076Z,3.69
2023-05-25T01:44:18.052Z,3.69
2023-05-25T01:45:18.072Z,3.58
2023-05-25T01:46:18.059Z,3.57
2023-05-25T01:47:18.046Z,3.60
2023-05-25T01:48:18.032Z,3.66
2023-05-25T01:49:18.002Z,3.68
2023-05-25T01:50:18.003Z,3.60
2023-05-25T01:51:19.657Z,3.57
2023-05-25T01:52:17.971Z,3.54
2023-05-25T01:53:17.977Z,3.60
2023-05-25T01:54:17.967Z,3.55
2023-05-25T01:55:17.932Z,3.48
2023-05-25T01:56:17.919Z,3.43
2023-05-25T01:57:17.909Z,3.43
2023-05-25T01:58:17.911Z,3.39
2023-05-25T01:59:17.887Z,3.42
2023-05-25T02:00:17.892Z,3.36
2023-05-25T02:01:17.907Z,3.33
2023-05-25T02:02:17.854Z,3.35
2023-05-25T02:03:17.844Z,3.35
2023-05-25T02:04:17.843Z,3.35
2023-05-25T02:05:17.839Z,3.39
2023-05-25T02:06:17.819Z,3.42
2023-05-25T02:07:17.796Z,3.35
2023-05-25T02:08:17.780Z,3.36
2023-05-25T02:09:17.799Z,3.36
2023-05-25T02:10:17.774Z,3.35
2023-05-25T02:11:17.773Z,3.42
2023-05-25T02:12:17.762Z,3.33
2023-05-25T02:13:17.741Z,3.36
2023-05-25T02:14:17.717Z,3.32
2023-05-25T02:15:17.732Z,3.31
2023-05-25T02:16:17.706Z,3.29
2023-05-25T02:17:17.775Z,3.31
2023-05-25T02:18:17.688Z,3.28
2023-05-25T02:19:17.668Z,3.24
2023-05-25T02:20:17.701Z,3.29
2023-05-25T02:21:17.648Z,3.33
2023-05-25T02:22:17.690Z,3.33
2023-05-25T02:23:17.628Z,3.28
2023-05-25T02:24:17.605Z,3.32
2023-05-25T02:25:17.653Z,3.29
2023-05-25T02:26:17.586Z,3.26
2023-05-25T02:27:17.577Z,3.29
2023-05-25T02:28:17.579Z,3.31
2023-05-25T02:29:17.572Z,3.31
2023-05-25T02:30:17.554Z,3.26
2023-05-25T02:31:17.571Z,3.23
2023-05-25T02:32:17.521Z,3.28
2023-05-25T02:33:17.533Z,3.28
2023-05-25T02:34:17.490Z,3.29
2023-05-25T02:35:17.498Z,3.28
2023-05-25T02:36:17.473Z,3.26
2023-05-25T02:37:17.471Z,3.26
2023-05-25T02:38:17.480Z,3.29
2023-05-25T02:39:17.443Z,3.26
2023-05-25T02:40:18.242Z,3.23
2023-05-25T02:41:17.443Z,3.21
2023-05-25T02:42:17.417Z,3.26
2023-05-25T02:43:17.425Z,3.23
2023-05-25T02:44:17.384Z,3.23
2023-05-25T02:45:17.377Z,3.29
2023-05-25T02:46:17.436Z,3.24
2023-05-25T02:47:17.350Z,3.29
2023-05-25T02:48:17.348Z,3.28
2023-05-25T02:49:17.350Z,3.29
2023-05-25T02:50:17.316Z,3.24
2023-05-25T02:51:17.334Z,3.17
2023-05-25T02:52:17.310Z,3.17
2023-05-25T02:53:17.296Z,3.13
2023-05-25T02:54:17.282Z,3.10
2023-05-25T02:55:17.261Z,3.11
2023-05-25T02:56:17.242Z,3.10
2023-05-25T02:57:17.300Z,3.13
2023-05-25T02:58:17.217Z,3.17
2023-05-25T02:59:17.211Z,3.17
2023-05-25T03:00:17.218Z,3.20
2023-05-25T03:01:17.243Z,3.13
2023-05-25T03:02:17.200Z,3.11
2023-05-25T03:03:17.216Z,3.08
2023-05-25T03:04:17.191Z,3.11
2023-05-25T03:05:17.175Z,3.13
2023-05-25T03:06:17.198Z,3.11
2023-05-25T03:07:17.145Z,3.10
2023-05-25T03:08:17.109Z,3.10
2023-05-25T03:09:17.132Z,3.13
2023-05-25T03:10:17.094Z,3.13
2023-05-25T03:11:17.092Z,3.17
2023-05-25T03:12:17.091Z,3.18
2023-05-25T03:13:17.080Z,3.15
2023-05-25T03:14:17.074Z,3.17
2023-05-25T03:15:17.074Z,3.13
2023-05-25T03:16:17.095Z,3.24
2023-05-25T03:17:17.035Z,3.23
2023-05-25T03:18:16.995Z,3.23
2023-05-25T03:19:16.991Z,3.18
2023-05-25T03:20:17.095Z,3.20
2023-05-25T03:21:16.969Z,3.17
2023-05-25T03:22:16.978Z,3.14
2023-05-25T03:23:17.070Z,3.10
2023-05-25T03:24:16.945Z,3.15
2023-05-25T03:25:16.927Z,3.20
2023-05-25T03:26:16.928Z,3.18
2023-05-25T03:27:16.936Z,3.18
2023-05-25T03:28:17.192Z,3.23
2023-05-25T03:29:16.915Z,3.23
2023-05-25T03:30:16.863Z,3.24
2023-05-25T03:31:16.853Z,3.24
2023-05-25T03:32:19.154Z,3.26
2023-05-25T03:33:16.830Z,3.17
2023-05-25T03:34:16.834Z,3.18
2023-05-25T03:35:16.818Z,3.17
2023-05-25T03:36:16.797Z,3.15
2023-05-25T03:37:16.808Z,3.26
2023-05-25T03:38:16.796Z,3.29
2023-05-25T03:39:16.762Z,3.20
2023-05-25T03:40:16.774Z,3.20
2023-05-25T03:41:16.750Z,3.29
2023-05-25T03:42:16.727Z,3.31
2023-05-25T03:43:16.738Z,3.40
2023-05-25T03:44:16.700Z,3.36
2023-05-25T03:45:16.732Z,3.40
2023-05-25T03:46:16.767Z,3.33
2023-05-25T03:47:16.691Z,3.43
2023-05-25T03:48:16.679Z,3.42
2023-05-25T03:49:16.648Z,3.47
2023-05-25T03:50:16.637Z,3.47
2023-05-25T03:51:16.645Z,3.51
2023-05-25T03:52:16.638Z,3.60
2023-05-25T03:53:16.631Z,3.57
2023-05-25T03:54:16.587Z,3.55
2023-05-25T03:55:16.586Z,3.66
2023-05-25T03:56:16.576Z,3.62
2023-05-25T03:57:16.587Z,3.60
2023-05-25T03:58:16.547Z,3.62
2023-05-25T03:59:16.543Z,3.72
2023-05-25T04:00:16.528Z,3.76
2023-05-25T04:01:16.538Z,3.66
2023-05-25T04:02:16.565Z,3.70
2023-05-25T04:03:16.846Z,3.75
2023-05-25T04:04:16.506Z,3.75
2023-05-25T04:05:16.469Z,3.79
2023-05-25T04:06:16.490Z,3.79
2023-05-25T04:07:16.449Z,3.83
2023-05-25T04:08:16.458Z,3.97
2023-05-25T04:09:16.442Z,3.96
2023-05-25T04:10:16.410Z,3.96
2023-05-25T04:11:16.398Z,4.00
2023-05-25T04:12:16.415Z,4.02
2023-05-25T04:13:16.456Z,4.09
2023-05-25T04:14:16.386Z,4.11
2023-05-25T04:15:16.368Z,4.12
2023-05-25T04:16:16.363Z,4.11
2023-05-25T04:17:16.363Z,4.12
2023-05-25T04:18:16.319Z,4.12
2023-05-25T04:19:16.556Z,4.14
2023-05-25T04:20:16.408Z,4.15
2023-05-25T04:21:16.290Z,4.14
2023-05-25T04:22:16.295Z,4.11
2023-05-25T04:23:16.273Z,4.32
2023-05-25T04:24:16.251Z,4.29
2023-05-25T04:25:16.270Z,4.37
2023-05-25T04:26:16.230Z,4.36
2023-05-25T04:27:16.219Z,4.45
2023-05-25T04:28:16.210Z,4.50
2023-05-25T04:29:16.217Z,4.47
2023-05-25T04:30:16.202Z,4.48
2023-05-25T04:31:16.249Z,4.55
2023-05-25T04:32:16.194Z,4.58
2023-05-25T04:33:16.183Z,4.67
2023-05-25T04:34:16.200Z,4.67
2023-05-25T04:35:16.137Z,4.73
2023-05-25T04:36:16.125Z,4.72
2023-05-25T04:37:16.503Z,4.82
2023-05-25T04:38:16.100Z,4.85
2023-05-25T04:39:16.083Z,4.89
2023-05-25T04:40:16.098Z,4.94
2023-05-25T04:41:16.079Z,5.00
2023-05-25T04:42:16.057Z,5.09
2023-05-25T04:43:16.051Z,5.03
2023-05-25T04:44:16.031Z,5.03
2023-05-25T04:45:16.035Z,5.07
2023-05-25T04:46:16.089Z,5.20
2023-05-25T04:47:16.008Z,5.18
2023-05-25T04:48:15.986Z,5.33
2023-05-25T04:49:15.997Z,5.27
2023-05-25T04:50:15.995Z,5.36
2023-05-25T04:51:15.998Z,5.28
2023-05-25T04:52:16.024Z,5.42
2023-05-25T04:53:15.940Z,5.48
2023-05-25T04:54:15.951Z,5.49
2023-05-25T04:55:15.951Z,5.49
2023-05-25T04:56:15.901Z,5.53
2023-05-25T04:57:15.899Z,5.57
2023-05-25T04:58:15.887Z,5.61
2023-05-25T04:59:15.949Z,5.56
2023-05-25T05:00:15.859Z,5.49
2023-05-25T05:01:15.934Z,5.65
2023-05-25T05:02:15.836Z,5.61
2023-05-25T05:03:16.031Z,5.63
2023-05-25T05:04:15.812Z,5.74
2023-05-25T05:05:16.015Z,5.68
2023-05-25T05:06:15.796Z,5.76
2023-05-25T05:07:15.788Z,5.90
2023-05-25T05:08:15.796Z,5.89
2023-05-25T05:09:16.975Z,5.91
2023-05-25T05:10:15.779Z,5.90
2023-05-25T05:11:15.742Z,5.96
2023-05-25T05:12:15.737Z,5.99
2023-05-25T05:13:15.710Z,6.08
2023-05-25T05:14:15.742Z,6.06
2023-05-25T05:15:15.681Z,6.11
2023-05-25T05:16:15.738Z,6.12
2023-05-25T05:17:15.691Z,6.31
2023-05-25T05:18:15.655Z,6.33
2023-05-25T05:19:15.645Z,6.43
2023-05-25T05:20:15.695Z,6.55
2023-05-25T05:21:15.644Z,6.44
2023-05-25T05:22:15.625Z,6.59
2023-05-25T05:23:15.605Z,6.62
2023-05-25T05:24:15.609Z,6.64
2023-05-25T05:25:15.573Z,6.67
2023-05-25T05:26:15.600Z,6.73
2023-05-25T05:27:15.572Z,6.79
2023-05-25T05:28:15.540Z,6.85
2023-05-25T05:29:15.562Z,6.92
2023-05-25T05:30:15.523Z,6.97
2023-05-25T05:31:15.583Z,7.09
2023-05-25T05:32:15.509Z,7.12
2023-05-25T05:33:15.602Z,7.15
2023-05-25T05:34:15.475Z,7.20
2023-05-25T05:35:15.515Z,7.25
2023-05-25T05:36:15.485Z,7.34
2023-05-25T05:37:15.454Z,7.35
2023-05-25T05:38:15.426Z,7.35
2023-05-25T05:39:15.462Z,7.40
2023-05-25T05:40:15.406Z,7.42
2023-05-25T05:41:15.402Z,7.50
2023-05-25T05:42:15.407Z,7.53
2023-05-25T05:43:15.369Z,7.52
2023-05-25T05:44:15.366Z,7.61
2023-05-25T05:45:15.350Z,7.67
2023-05-25T05:46:15.387Z,7.72
2023-05-25T05:47:15.321Z,7.67
2023-05-25T05:48:15.338Z,7.79
2023-05-25T05:49:15.299Z,7.80
2023-05-25T05:50:15.324Z,7.83
2023-05-25T05:51:15.278Z,7.92
2023-05-25T05:52:15.292Z,7.97
2023-05-25T05:53:15.277Z,8.12
2023-05-25T05:54:15.295Z,8.11
2023-05-25T05:55:15.252Z,8.15
2023-05-25T05:56:15.224Z,8.22
2023-05-25T05:57:15.209Z,8.28
2023-05-25T05:58:15.217Z,8.18
2023-05-25T05:59:15.202Z,8.23
2023-05-25T06:00:15.197Z,8.28
2023-05-25T06:01:15.190Z,8.45
2023-05-25T06:02:15.184Z,8.43
2023-05-25T06:03:15.190Z,8.44
2023-05-25T06:04:15.180Z,8.44
2023-05-25T06:05:15.198Z,8.53
2023-05-25T06:06:15.133Z,8.50
2023-05-25T06:07:15.098Z,8.65
2023-05-25T06:08:15.091Z,8.71
2023-05-25T06:09:15.154Z,8.70
2023-05-25T06:10:15.078Z,8.71
2023-05-25T06:11:15.059Z,8.84
2023-05-25T06:12:15.120Z,8.94
2023-05-25T06:13:15.029Z,8.95
2023-05-25T06:14:15.058Z,8.94
2023-05-25T06:15:15.009Z,8.99
2023-05-25T06:16:15.058Z,9.08
2023-05-25T06:17:15.008Z,9.15
2023-05-25T06:18:14.983Z,9.15
2023-05-25T06:19:14.984Z,9.21
2023-05-25T06:20:15.206Z,9.20
2023-05-25T06:21:14.961Z,9.23
2023-05-25T06:22:14.971Z,9.31
2023-05-25T06:23:14.948Z,9.33
2023-05-25T06:24:14.914Z,9.40
2023-05-25T06:25:14.917Z,9.50
2023-05-25T06:26:14.892Z,9.60
2023-05-25T06:27:14.875Z,9.58
2023-05-25T06:28:14.906Z,9.56
2023-05-25T06:29:16.876Z,9.61
2023-05-25T06:30:14.850Z,9.66
2023-05-25T06:31:14.856Z,9.61
2023-05-25T06:32:14.944Z,9.66
2023-05-25T06:33:14.945Z,9.76
2023-05-25T06:34:14.838Z,9.93
2023-05-25T06:35:14.795Z,9.87
2023-05-25T06:36:15.870Z,9.97
2023-05-25T06:37:14.963Z,9.94
2023-05-25T06:38:14.761Z,10.09
2023-05-25T06:39:14.802Z,10.05
2023-05-25T06:40:14.821Z,10.20
2023-05-25T06:41:14.788Z,10.34
2023-05-25T06:42:14.734Z,10.88
2023-05-25T06:43:14.702Z,11.17
2023-05-25T06:44:14.712Z,11.67
2023-05-25T06:45:14.667Z,11.98
2023-05-25T06:46:14.735Z,12.28
2023-05-25T06:47:14.661Z,12.57
2023-05-25T06:48:15.244Z,12.82
2023-05-25T06:49:14.618Z,13.08
2023-05-25T06:50:14.623Z,13.17
2023-05-25T06:51:14.617Z,13.36
2023-05-25T06:52:14.618Z,13.44
2023-05-25T06:53:14.583Z,13.42
2023-05-25T06:54:14.582Z,13.67
2023-05-25T06:55:14.613Z,13.85
2023-05-25T06:56:14.684Z,14.00
2023-05-25T06:57:14.572Z,14.15
2023-05-25T06:58:14.543Z,14.20
2023-05-25T06:59:14.510Z,14.33
2023-05-25T07:00:14.503Z,14.27
2023-05-25T07:01:14.507Z,14.36
2023-05-25T07:02:14.487Z,14.54
2023-05-25T07:03:14.471Z,14.64
2023-05-25T07:04:14.485Z,14.70
2023-05-25T07:05:14.482Z,14.92
2023-05-25T07:06:14.460Z,15.03
2023-05-25T07:07:14.439Z,15.31
2023-05-25T07:08:14.436Z,15.49
2023-05-25T07:09:14.408Z,15.62
2023-05-25T07:10:14.404Z,15.78
2023-05-25T07:11:14.483Z,16.01
2023-05-25T07:12:14.367Z,16.07
2023-05-25T07:13:14.445Z,16.25
2023-05-25T07:14:14.351Z,16.15
2023-05-25T07:15:14.335Z,16.01
2023-05-25T07:16:14.408Z,15.89
2023-05-25T07:17:14.326Z,15.83
2023-05-25T07:18:14.306Z,15.84
2023-05-25T07:19:14.308Z,15.87
2023-05-25T07:20:14.537Z,16.04
2023-05-25T07:21:14.266Z,16.11
2023-05-25T07:22:14.283Z,16.11
2023-05-25T07:23:14.262Z,16.04
2023-05-25T07:24:14.243Z,15.86
2023-05-25T07:25:14.388Z,15.76
2023-05-25T07:26:14.212Z,15.64
2023-05-25T07:27:14.268Z,15.46
2023-05-25T07:28:14.215Z,15.43
2023-05-25T07:29:14.224Z,15.41
2023-05-25T07:30:14.184Z,15.50
2023-05-25T07:31:14.195Z,15.41
2023-05-25T07:32:14.153Z,15.54
2023-05-25T07:33:14.150Z,15.53
2023-05-25T07:34:14.137Z,15.64
2023-05-25T07:35:14.121Z,15.75
2023-05-25T07:36:14.132Z,15.90
2023-05-25T07:37:14.110Z,16.12
2023-05-25T07:38:14.079Z,16.17
2023-05-25T07:39:14.086Z,16.17
2023-05-25T07:40:14.076Z,16.35
2023-05-25T07:41:14.044Z,16.35
2023-05-25T07:42:14.075Z,16.50
2023-05-25T07:43:14.018Z,16.28
2023-05-25T07:44:14.014Z,16.09
2023-05-25T07:45:14.016Z,16.09
2023-05-25T07:46:14.015Z,16.01
2023-05-25T07:47:13.998Z,15.87
2023-05-25T07:48:14.032Z,15.86
2023-05-25T07:49:13.948Z,15.57
2023-05-25T07:50:13.949Z,15.67
2023-05-25T07:51:13.965Z,15.65
2023-05-25T07:52:13.944Z,15.54
2023-05-25T07:53:13.925Z,15.75
2023-05-25T07:54:13.924Z,15.90
2023-05-25T07:55:13.925Z,16.12
2023-05-25T07:56:13.892Z,16.12
2023-05-25T07:57:13.878Z,16.43
2023-05-25T07:58:13.861Z,16.43
2023-05-25T07:59:13.855Z,16.61
2023-05-25T08:00:13.850Z,16.57
2023-05-25T08:01:13.846Z,16.39
2023-05-25T08:02:13.879Z,16.20
2023-05-25T08:03:14.004Z,16.25
2023-05-25T08:04:13.902Z,16.28
2023-05-25T08:05:13.977Z,16.23
2023-05-25T08:06:13.840Z,16.28
2023-05-25T08:07:13.753Z,16.34
2023-05-25T08:08:13.753Z,16.33
2023-05-25T08:09:13.744Z,16.35
2023-05-25T08:10:13.743Z,16.43
2023-05-25T08:11:13.706Z,16.64
2023-05-25T08:12:34.122Z,16.73
2023-05-25T08:13:14.681Z,16.83
2023-05-25T08:14:13.718Z,16.75
2023-05-25T08:15:13.680Z,16.73
2023-05-25T08:16:13.679Z,16.71
2023-05-25T08:17:13.800Z,16.64
2023-05-25T08:18:13.704Z,16.25
2023-05-25T08:19:13.628Z,16.27
2023-05-25T08:20:13.696Z,16.31
2023-05-25T08:21:13.618Z,16.20
2023-05-25T08:22:13.602Z,16.20
2023-05-25T08:23:13.615Z,16.35
2023-05-25T08:24:13.580Z,16.41
2023-05-25T08:25:13.787Z,16.56
2023-05-25T08:26:31.165Z,16.68
2023-05-25T08:27:14.540Z,16.60
2023-05-25T08:28:13.535Z,16.71
2023-05-25T08:29:13.530Z,16.89
2023-05-25T08:30:13.492Z,16.89
2023-05-25T08:31:13.509Z,17.12
2023-05-25T08:32:13.484Z,17.18
2023-05-25T08:33:13.575Z,17.38
2023-05-25T08:34:13.466Z,17.46
2023-05-25T08:35:13.443Z,17.43
2023-05-25T08:36:13.433Z,17.40
2023-05-25T08:37:13.434Z,17.12
2023-05-25T08:38:13.406Z,16.94
2023-05-25T08:39:13.402Z,16.97
2023-05-25T08:40:13.372Z,17.00
2023-05-25T08:41:13.381Z,17.07
2023-05-25T08:42:13.395Z,17.23
2023-05-25T08:43:13.422Z,17.43
2023-05-25T08:44:13.341Z,17.46
2023-05-25T08:45:26.482Z,17.63
2023-05-25T08:46:14.315Z,17.66
2023-05-25T08:47:13.319Z,17.75
2023-05-25T08:48:13.933Z,17.77
2023-05-25T08:49:13.481Z,17.68
2023-05-25T08:50:13.413Z,17.59
2023-05-25T08:51:13.301Z,17.55
2023-05-25T08:52:13.273Z,17.70
2023-05-25T08:53:13.236Z,17.63
2023-05-25T08:54:13.226Z,17.51
2023-05-25T08:55:13.215Z,17.68
2023-05-25T08:56:13.224Z,17.74
2023-05-25T08:57:13.219Z,17.87
2023-05-25T08:58:13.174Z,17.87
2023-05-25T08:59:13.171Z,18.02
2023-05-25T09:00:13.177Z,18.18
2023-05-25T09:01:13.164Z,18.36
2023-05-25T09:02:13.275Z,18.55
2023-05-25T09:03:13.182Z,18.65
2023-05-25T09:04:13.150Z,18.67
2023-05-25T09:05:13.153Z,18.70
2023-05-25T09:06:13.082Z,18.51
2023-05-25T09:07:13.079Z,18.45
2023-05-25T09:08:13.154Z,18.23
2023-05-25T09:09:13.057Z,18.15
2023-05-25T09:10:13.034Z,18.12
2023-05-25T09:11:16.980Z,18.02
2023-05-25T09:12:14.031Z,17.86
2023-05-25T09:14:13.996Z,17.93
2023-05-25T09:15:12.992Z,17.84
2023-05-25T09:16:12.980Z,17.74
2023-05-25T09:17:12.967Z,17.77
2023-05-25T09:18:13.238Z,17.77
2023-05-25T09:19:12.996Z,18.02
2023-05-25T09:20:12.938Z,18.17
2023-05-25T09:21:12.940Z,18.30
2023-05-25T09:22:16.566Z,18.36
2023-05-25T09:23:12.903Z,18.44
2023-05-25T09:24:12.907Z,18.55
2023-05-25T09:25:12.882Z,18.67
2023-05-25T09:26:12.867Z,18.62
2023-05-25T09:27:12.871Z,18.65
2023-05-25T09:29:12.866Z,18.78
2023-05-25T09:30:12.842Z,18.81
2023-05-25T09:31:12.816Z,18.72
2023-05-25T09:32:12.804Z,18.37
2023-05-25T09:33:12.890Z,18.03
2023-05-25T09:34:12.776Z,18.07
2023-05-25T09:35:12.771Z,18.18
2023-05-25T09:36:12.886Z,18.17
2023-05-25T09:37:12.893Z,18.26
2023-05-25T09:38:12.886Z,18.12
2023-05-25T09:39:13.004Z,18.17
2023-05-25T09:40:14.093Z,18.12
2023-05-25T09:41:12.700Z,18.18
2023-05-25T09:42:12.715Z,18.15
2023-05-25T09:43:15.693Z,18.02
2023-05-25T09:44:12.697Z,18.03
2023-05-25T09:45:12.688Z,18.02
2023-05-25T09:46:12.702Z,18.11
2023-05-25T09:47:12.646Z,18.27
2023-05-25T09:48:12.801Z,18.26
2023-05-25T09:49:12.632Z,18.39
2023-05-25T09:50:12.614Z,18.47
2023-05-25T09:51:12.641Z,18.47
2023-05-25T09:52:12.570Z,18.29
2023-05-25T09:53:12.595Z,18.32
2023-05-25T09:54:12.561Z,18.36
2023-05-25T09:55:12.564Z,18.36
2023-05-25T09:56:12.558Z,18.52
2023-05-25T09:57:12.528Z,18.54
2023-05-25T09:58:12.514Z,18.50
2023-05-25T09:59:12.505Z,18.52
2023-05-25T10:00:12.504Z,18.37
2023-05-25T10:01:12.554Z,18.41
2023-05-25T10:02:12.504Z,18.47
2023-05-25T10:03:12.547Z,18.67
2023-05-25T10:04:12.485Z,18.82
2023-05-25T10:05:12.506Z,18.90
2023-05-25T10:06:12.421Z,18.80
2023-05-25T10:07:12.429Z,18.80
2023-05-25T10:08:12.419Z,18.66
2023-05-25T10:09:12.410Z,18.63
2023-05-25T10:10:12.386Z,18.55
2023-05-25T10:11:12.463Z,18.65
2023-05-25T10:12:12.399Z,18.65
2023-05-25T10:13:12.385Z,18.85
2023-05-25T10:14:12.357Z,18.95
2023-05-25T10:15:12.358Z,18.98
2023-05-25T10:16:12.397Z,18.85
2023-05-25T10:17:12.298Z,18.85
2023-05-25T10:18:12.294Z,18.72
2023-05-25T10:19:12.290Z,18.82
2023-05-25T10:20:12.293Z,18.80
2023-05-25T10:21:12.277Z,18.75
2023-05-25T10:22:12.246Z,18.55
2023-05-25T10:23:12.249Z,18.50
2023-05-25T10:24:12.246Z,18.57
2023-05-25T10:25:12.244Z,18.62
2023-05-25T10:26:13.036Z,18.57
2023-05-25T10:27:25.610Z,18.30
2023-05-25T10:28:13.184Z,18.25
2023-05-25T10:29:12.162Z,18.45
2023-05-25T10:30:12.197Z,18.52
2023-05-25T10:31:12.165Z,18.42
2023-05-25T10:32:12.126Z,18.20
2023-05-25T10:33:12.207Z,18.25
2023-05-25T10:34:12.100Z,18.35
2023-05-25T10:35:12.117Z,18.44
2023-05-25T10:36:12.119Z,18.36
2023-05-25T10:37:12.083Z,18.32
2023-05-25T10:38:12.054Z,18.36
2023-05-25T10:39:12.048Z,18.30
2023-05-25T10:40:12.038Z,18.36
2023-05-25T10:41:12.103Z,18.47
2023-05-25T10:42:12.022Z,18.48
2023-05-25T10:43:12.014Z,18.26
2023-05-25T10:44:11.987Z,18.29
2023-05-25T10:45:12.000Z,18.23
2023-05-25T10:46:11.960Z,18.30
2023-05-25T10:47:12.095Z,18.33
2023-05-25T10:48:12.060Z,18.35
2023-05-25T10:49:11.938Z,18.48
2023-05-25T10:50:11.921Z,18.54
2023-05-25T10:51:12.230Z,18.47
2023-05-25T10:52:11.902Z,18.45
2023-05-25T10:53:11.897Z,18.37
2023-05-25T10:54:11.909Z,18.25
2023-05-25T10:55:11.888Z,18.29
2023-05-25T10:56:11.853Z,18.29
2023-05-25T10:57:11.891Z,18.48
2023-05-25T10:58:11.830Z,18.62
2023-05-25T10:59:11.847Z,18.72
2023-05-25T11:00:11.821Z,18.67
2023-05-25T11:01:12.044Z,18.69
2023-05-25T11:02:11.812Z,18.82
2023-05-25T11:03:11.796Z,18.92
2023-05-25T11:04:11.833Z,19.11
2023-05-25T11:05:11.762Z,19.00
2023-05-25T11:06:11.760Z,19.02
2023-05-25T11:07:11.737Z,19.07
2023-05-25T11:08:11.718Z,19.18
2023-05-25T11:09:11.709Z,19.26
2023-05-25T11:10:11.699Z,19.29
2023-05-25T11:11:11.733Z,19.36
2023-05-25T11:12:11.708Z,19.43
2023-05-25T11:13:11.706Z,19.46
2023-05-25T11:14:11.654Z,19.61
2023-05-25T11:15:11.690Z,19.62
2023-05-25T11:16:11.651Z,19.74
2023-05-25T11:17:11.997Z,19.81
2023-05-25T11:18:11.665Z,19.46
2023-05-25T11:19:11.629Z,19.25
2023-05-25T11:20:11.613Z,19.26
2023-05-25T11:21:11.598Z,19.33
2023-05-25T11:22:11.563Z,19.40
2023-05-25T11:23:11.581Z,19.32
2023-05-25T11:24:11.544Z,19.25
2023-05-25T11:25:11.556Z,19.31
2023-05-25T11:26:11.519Z,19.28
2023-05-25T11:27:11.526Z,19.29
2023-05-25T11:28:11.524Z,19.46
2023-05-25T11:29:11.509Z,19.25
2023-05-25T11:30:11.508Z,19.28
2023-05-25T11:31:11.517Z,19.44
2023-05-25T11:32:11.495Z,19.54
2023-05-25T11:33:11.527Z,19.55
2023-05-25T11:34:11.435Z,19.66
2023-05-25T11:35:11.455Z,19.73
2023-05-25T11:36:11.439Z,19.81
2023-05-25T11:37:12.303Z,19.65
2023-05-25T11:38:11.384Z,19.66
2023-05-25T11:39:20.578Z,19.76
2023-05-25T11:40:12.419Z,19.73
2023-05-25T11:41:11.359Z,19.96
2023-05-25T11:42:11.376Z,19.98
2023-05-25T11:43:11.441Z,19.96
2023-05-25T11:44:11.498Z,19.98
2023-05-25T11:45:11.400Z,20.28
2023-05-25T11:46:11.402Z,20.28
2023-05-25T11:47:11.416Z,20.03
2023-05-25T11:48:11.293Z,19.92
2023-05-25T11:49:11.272Z,20.01
2023-05-25T11:50:11.305Z,20.16
2023-05-25T11:51:11.246Z,20.39
2023-05-25T11:52:11.251Z,20.43
2023-05-25T11:53:11.233Z,20.52
2023-05-25T11:54:11.209Z,20.58
2023-05-25T11:55:11.209Z,20.29
2023-05-25T11:56:12.473Z,20.32
2023-05-25T11:57:11.200Z,20.28
2023-05-25T11:58:11.173Z,20.47
2023-05-25T11:59:11.158Z,20.76
2023-05-25T12:00:11.191Z,20.87
2023-05-25T12:01:11.193Z,20.95
2023-05-25T12:02:11.138Z,20.87
2023-05-25T12:03:11.234Z,20.77
2023-05-25T12:04:11.237Z,20.84
2023-05-25T12:05:11.455Z,20.74
2023-05-25T12:06:11.065Z,20.62
2023-05-25T12:07:11.092Z,20.73
2023-05-25T12:08:11.055Z,20.91
2023-05-25T12:09:11.042Z,20.88
2023-05-25T12:10:11.123Z,21.10
2023-05-25T12:11:11.028Z,20.94
2023-05-25T12:12:11.009Z,20.95
2023-05-25T12:13:11.004Z,20.92
2023-05-25T12:14:10.988Z,20.87
2023-05-25T12:15:10.982Z,20.67
2023-05-25T12:16:10.981Z,20.61
2023-05-25T12:17:11.099Z,20.61
2023-05-25T12:18:10.962Z,20.52
2023-05-25T12:19:10.961Z,20.41
2023-05-25T12:20:10.943Z,20.38
2023-05-25T12:21:10.908Z,20.41
2023-05-25T12:22:10.896Z,20.26
2023-05-25T12:23:10.917Z,20.16
2023-05-25T12:24:10.871Z,20.48
2023-05-25T12:25:10.873Z,20.61
2023-05-25T12:26:10.875Z,20.52
2023-05-25T12:27:12.120Z,20.58
2023-05-25T12:28:10.821Z,20.66
2023-05-25T12:29:10.821Z,20.73
2023-05-25T12:30:10.807Z,20.84
2023-05-25T12:31:10.861Z,20.99
2023-05-25T12:32:10.818Z,21.16
2023-05-25T12:33:10.817Z,21.22
2023-05-25T12:34:10.756Z,21.28
2023-05-25T12:35:10.755Z,21.25
2023-05-25T12:36:10.741Z,21.27
2023-05-25T12:37:10.730Z,21.21
2023-05-25T12:38:10.739Z,21.19
2023-05-25T12:39:10.712Z,21.31
2023-05-25T12:40:10.740Z,21.38
2023-05-25T12:41:10.695Z,21.50
2023-05-25T12:42:10.671Z,21.49
2023-05-25T12:43:10.673Z,21.53
2023-05-25T12:44:10.647Z,21.52
2023-05-25T12:45:10.665Z,21.32
2023-05-25T12:46:10.767Z,21.22
2023-05-25T12:47:10.623Z,21.25
2023-05-25T12:48:10.725Z,21.37
2023-05-25T12:49:10.635Z,21.52
2023-05-25T12:50:10.583Z,21.50
2023-05-25T12:51:10.601Z,21.34
2023-05-25T12:52:10.557Z,21.24
2023-05-25T12:53:10.561Z,21.46
2023-05-25T12:54:10.543Z,21.38
2023-05-25T12:55:10.544Z,21.44
2023-05-25T12:56:10.557Z,21.54
2023-05-25T12:57:10.507Z,21.65
2023-05-25T12:58:10.503Z,21.43
2023-05-25T12:59:10.490Z,21.27
2023-05-25T13:00:10.498Z,21.16
2023-05-25T13:01:10.488Z,21.10
2023-05-25T13:02:10.531Z,21.21
2023-05-25T13:03:10.505Z,21.28
2023-05-25T13:04:10.440Z,21.42
2023-05-25T13:05:10.473Z,21.53
2023-05-25T13:06:10.436Z,21.74
2023-05-25T13:07:10.393Z,21.96